createdAt,value
2022-10-11T00:01:00.471Z,9.40
2022-10-11T00:04:02.284Z,8.57
2022-10-11T00:07:04.099Z,8.70
2022-10-11T00:10:07.114Z,8.57
2022-10-11T00:13:11.071Z,8.02
2022-10-11T00:16:15.506Z,8.70
2022-10-11T00:19:17.432Z,8.43
2022-10-11T00:22:19.120Z,8.43
2022-10-11T00:25:20.721Z,7.85
2022-10-11T00:28:22.498Z,7.40
2022-10-11T00:31:24.247Z,7.32
2022-10-11T00:34:25.916Z,7.40
2022-10-11T00:37:27.694Z,7.82
2022-10-11T00:40:29.319Z,7.57
2022-10-11T00:43:33.264Z,7.63
2022-10-11T00:46:35.155Z,7.93
2022-10-11T00:50:03.516Z,7.72
2022-10-11T00:53:11.320Z,8.27
2022-10-11T00:56:39.812Z,7.25
2022-10-11T00:59:45.555Z,8.17
2022-10-11T01:02:47.586Z,7.72
2022-10-11T01:05:49.641Z,8.30
2022-10-11T01:08:52.786Z,8.30
2022-10-11T01:11:58.631Z,8.07
2022-10-11T01:15:17.244Z,8.30
2022-10-11T01:18:41.570Z,8.55
2022-10-11T01:22:28.878Z,8.35
2022-10-11T01:25:42.331Z,7.80
2022-10-11T01:29:05.702Z,8.23
2022-10-11T01:32:13.575Z,8.45
2022-10-11T01:35:30.440Z,8.68
2022-10-11T01:38:41.093Z,8.57
2022-10-11T01:41:47.601Z,9.88
2022-10-11T01:44:51.369Z,9.27
2022-10-11T01:48:03.790Z,8.98
2022-10-11T01:51:05.458Z,8.63
2022-10-11T01:54:56.643Z,8.35
2022-10-11T01:58:02.206Z,7.88
2022-10-11T02:01:26.970Z,8.15
2022-10-11T02:04:42.721Z,7.72
2022-10-11T02:08:02.624Z,8.32
2022-10-11T02:11:10.423Z,8.23
2022-10-11T02:14:18.405Z,7.97
2022-10-11T02:17:23.869Z,8.13
2022-10-11T02:20:28.687Z,8.00
2022-10-11T02:23:35.297Z,8.48
2022-10-11T02:26:41.803Z,8.48
2022-10-11T02:29:46.344Z,8.30
2022-10-11T02:32:50.393Z,8.52
2022-10-11T02:36:03.415Z,8.07
2022-10-11T02:39:13.195Z,8.10
2022-10-11T02:42:19.398Z,8.20
2022-10-11T02:45:39.122Z,8.07
2022-10-11T02:48:40.806Z,7.80
2022-10-11T02:51:42.576Z,8.23
2022-10-11T02:54:44.198Z,8.30
2022-10-11T02:57:46.408Z,8.45
2022-10-11T03:00:48.478Z,8.35
2022-10-11T03:03:50.720Z,7.95
2022-10-11T03:06:52.379Z,7.93
2022-10-11T03:09:54.054Z,7.82
2022-10-11T03:12:55.707Z,7.75
2022-10-11T03:16:03.239Z,8.15
2022-10-11T03:19:05.416Z,8.00
2022-10-11T03:22:07.232Z,7.70
2022-10-11T03:25:09.310Z,7.85
2022-10-11T03:28:14.121Z,8.02
2022-10-11T03:31:16.010Z,8.03
2022-10-11T03:34:17.679Z,7.50
2022-10-11T03:37:19.318Z,7.45
2022-10-11T03:40:20.954Z,7.82
2022-10-11T03:43:22.745Z,7.73
2022-10-11T03:46:24.423Z,8.70
2022-10-11T03:49:26.069Z,7.60
2022-10-11T03:52:27.858Z,8.50
2022-10-11T03:55:29.473Z,8.27
2022-10-11T03:58:31.293Z,7.90
2022-10-11T04:01:37.960Z,8.02
2022-10-11T04:04:39.697Z,8.15
2022-10-11T04:07:41.381Z,7.47
2022-10-11T04:10:43.285Z,7.70
2022-10-11T04:13:44.886Z,7.90
2022-10-11T04:16:46.539Z,7.82
2022-10-11T04:19:48.291Z,7.72
2022-10-11T04:22:50.439Z,7.70
2022-10-11T04:25:52.190Z,7.10
2022-10-11T04:28:54.193Z,7.60
2022-10-11T04:31:55.962Z,7.18
2022-10-11T04:34:57.580Z,7.03
2022-10-11T04:37:59.187Z,7.30
2022-10-11T04:41:09.056Z,7.57
2022-10-11T04:44:10.693Z,7.72
2022-10-11T04:47:12.466Z,7.40
2022-10-11T04:50:14.281Z,7.63
2022-10-11T04:53:15.903Z,7.47
2022-10-11T04:56:18.624Z,7.13
2022-10-11T04:59:20.481Z,7.50
2022-10-11T05:02:22.305Z,7.60
2022-10-11T05:05:24.256Z,7.23
2022-10-11T05:08:26.553Z,7.53
2022-10-11T05:11:28.381Z,7.63
2022-10-11T05:14:30.095Z,8.30
2022-10-11T05:17:32.220Z,7.30
2022-10-11T05:20:33.826Z,7.82
2022-10-11T05:23:37.150Z,8.02
2022-10-11T05:26:38.858Z,7.70
2022-10-11T05:29:40.533Z,7.53
2022-10-11T05:32:42.193Z,7.97
2022-10-11T05:35:44.316Z,8.75
2022-10-11T05:38:45.963Z,9.80
2022-10-11T05:41:47.630Z,10.47
2022-10-11T05:44:49.204Z,10.57
2022-10-11T05:47:50.949Z,10.43
2022-10-11T05:50:53.147Z,10.05
2022-10-11T05:53:54.757Z,9.47
2022-10-11T05:56:56.359Z,9.70
2022-10-11T05:59:58.110Z,10.15
2022-10-11T06:02:59.737Z,9.85
2022-10-11T06:06:04.923Z,10.90
2022-10-11T06:09:06.894Z,10.40
2022-10-11T06:12:08.538Z,10.60
2022-10-11T06:15:11.288Z,10.63
2022-10-11T06:18:12.982Z,10.68
2022-10-11T06:21:15.575Z,11.40
2022-10-11T06:24:17.516Z,10.82
2022-10-11T06:27:19.147Z,9.85
2022-10-11T06:30:20.815Z,9.80
2022-10-11T06:33:22.851Z,9.70
2022-10-11T06:36:24.994Z,9.80
2022-10-11T06:39:27.047Z,8.95
2022-10-11T06:42:28.685Z,8.77
2022-10-11T06:45:30.371Z,8.25
2022-10-11T06:48:32.039Z,8.38
2022-10-11T06:51:35.411Z,7.90
2022-10-11T06:54:40.066Z,7.77
2022-10-11T06:57:44.153Z,7.72
2022-10-11T07:00:45.863Z,7.90
2022-10-11T07:03:48.254Z,8.13
2022-10-11T07:06:50.109Z,7.80
2022-10-11T07:09:51.705Z,7.63
2022-10-11T07:12:53.517Z,8.15
2022-10-11T07:15:55.371Z,8.00
2022-10-11T07:19:00.783Z,7.97
2022-10-11T07:22:02.813Z,9.10
2022-10-11T07:25:04.983Z,9.68
2022-10-11T07:28:06.613Z,9.82
2022-10-11T07:31:20.794Z,9.70
2022-10-11T07:34:22.967Z,10.25
2022-10-11T07:37:24.585Z,10.05
2022-10-11T07:40:26.476Z,11.00
2022-10-11T07:43:28.141Z,11.38
2022-10-11T07:46:30.515Z,10.98
2022-10-11T07:49:32.442Z,10.45
2022-10-11T07:52:35.543Z,10.75
2022-10-11T07:55:40.999Z,11.82
2022-10-11T07:58:43.077Z,10.90
2022-10-11T08:01:44.737Z,10.02
2022-10-11T08:04:46.377Z,10.15
2022-10-11T08:07:48.817Z,9.55
2022-10-11T08:10:50.465Z,9.63
2022-10-11T08:13:52.630Z,9.00
2022-10-11T08:16:54.224Z,9.98
2022-10-11T08:19:56.581Z,9.30
2022-10-11T08:22:58.188Z,9.75
2022-10-11T08:25:59.819Z,9.40
2022-10-11T08:29:05.336Z,9.00
2022-10-11T08:32:07.169Z,8.68
2022-10-11T08:35:08.901Z,8.90
2022-10-11T08:38:10.761Z,9.60
2022-10-11T08:41:51.152Z,10.43
2022-10-11T08:45:10.433Z,9.20
2022-10-11T08:48:17.722Z,8.90
2022-10-11T08:51:35.329Z,8.15
2022-10-11T08:54:52.261Z,8.05
2022-10-11T08:57:56.589Z,7.17
2022-10-11T09:01:00.835Z,7.78
2022-10-11T09:04:03.635Z,8.60
2022-10-11T09:07:17.515Z,7.65
2022-10-11T09:10:44.163Z,7.97
2022-10-11T09:14:15.497Z,8.10
2022-10-11T09:17:31.550Z,8.10
2022-10-11T09:20:33.158Z,8.35
2022-10-11T09:23:53.842Z,8.52
2022-10-11T09:27:12.939Z,7.63
2022-10-11T09:30:17.524Z,7.30
2022-10-11T09:33:19.105Z,7.50
2022-10-11T09:36:28.485Z,6.95
2022-10-11T09:39:33.345Z,6.80
2022-10-11T09:42:34.968Z,6.90
2022-10-11T09:45:36.802Z,6.30
2022-10-11T09:48:41.995Z,6.45
2022-10-11T09:51:49.702Z,6.35
2022-10-11T09:54:55.274Z,6.30
2022-10-11T09:57:56.978Z,6.60
2022-10-11T10:01:12.932Z,6.65
2022-10-11T10:04:17.138Z,6.80
2022-10-11T10:07:18.931Z,6.50
2022-10-11T10:10:34.079Z,6.43
2022-10-11T10:13:56.021Z,6.13
2022-10-11T10:17:06.774Z,7.22
2022-10-11T10:20:21.194Z,6.75
2022-10-11T10:23:31.519Z,7.43
2022-10-11T10:26:34.061Z,6.80
2022-10-11T10:29:35.994Z,6.87
2022-10-11T10:32:48.918Z,6.53
2022-10-11T10:36:29.228Z,6.90
2022-10-11T10:39:50.889Z,7.35
2022-10-11T10:42:52.772Z,6.82
2022-10-11T10:46:09.965Z,6.83
2022-10-11T10:49:54.094Z,6.47
2022-10-11T10:53:23.834Z,6.10
2022-10-11T10:56:36.718Z,6.07
2022-10-11T11:00:02.376Z,5.55
2022-10-11T11:03:11.184Z,5.90
2022-10-11T11:06:36.568Z,5.68
2022-10-11T11:09:51.365Z,5.50
2022-10-11T11:13:12.778Z,5.40
2022-10-11T11:16:26.278Z,5.03
2022-10-11T11:20:06.913Z,5.30
2022-10-11T11:23:23.386Z,6.78
2022-10-11T11:26:45.702Z,6.53
2022-10-11T11:29:55.241Z,6.70
2022-10-11T11:33:34.494Z,6.40
2022-10-11T11:36:41.983Z,7.13
2022-10-11T11:39:50.450Z,7.15
2022-10-11T11:42:57.112Z,6.90
2022-10-11T11:46:09.529Z,6.70
2022-10-11T11:49:18.104Z,7.37
2022-10-11T11:52:36.147Z,6.72
2022-10-11T11:55:50.380Z,6.78
2022-10-11T11:59:03.286Z,6.95
2022-10-11T12:02:31.232Z,6.28
2022-10-11T12:05:35.483Z,6.23
2022-10-11T12:08:38.758Z,6.45
2022-10-11T12:11:46.079Z,7.05
2022-10-11T12:14:47.791Z,6.75
2022-10-11T12:17:58.550Z,6.97
2022-10-11T12:21:17.576Z,6.37
2022-10-11T12:24:19.146Z,6.07
2022-10-11T12:27:40.816Z,7.25
2022-10-11T12:30:48.343Z,6.93
2022-10-11T12:34:18.588Z,5.47
2022-10-11T12:37:20.183Z,4.90
2022-10-11T12:40:42.009Z,4.55
2022-10-11T12:43:49.604Z,4.60
2022-10-11T12:46:51.459Z,4.90
2022-10-11T12:49:57.476Z,5.10
2022-10-11T12:53:28.749Z,4.97
2022-10-11T12:56:48.222Z,4.72
2022-10-11T12:59:50.257Z,5.00
2022-10-11T13:02:52.060Z,4.28
2022-10-11T13:06:04.755Z,4.40
2022-10-11T13:09:29.855Z,4.00
2022-10-11T13:12:40.393Z,4.00
2022-10-11T13:15:43.836Z,3.92
2022-10-11T13:18:48.896Z,3.92
2022-10-11T13:21:54.824Z,4.20
2022-10-11T13:24:58.018Z,3.60
2022-10-11T13:27:59.939Z,4.35
2022-10-11T13:31:01.764Z,3.83
2022-10-11T13:34:03.688Z,3.90
2022-10-11T13:37:06.550Z,3.88
2022-10-11T13:40:14.415Z,4.10
2022-10-11T13:43:19.412Z,3.85
2022-10-11T13:46:24.342Z,3.53
2022-10-11T13:49:37.000Z,4.38
2022-10-11T13:52:53.419Z,4.20
2022-10-11T13:55:58.998Z,3.90
2022-10-11T13:59:01.559Z,4.20
2022-10-11T14:02:04.468Z,3.92
2022-10-11T14:05:06.714Z,4.03
2022-10-11T14:08:31.353Z,4.50
2022-10-11T14:11:36.978Z,5.03
2022-10-11T14:14:42.862Z,5.78
2022-10-11T14:17:45.845Z,5.53
2022-10-11T14:20:47.584Z,5.10
2022-10-11T14:23:56.793Z,5.55
2022-10-11T14:26:59.151Z,6.00
2022-10-11T14:30:24.172Z,5.70
2022-10-11T14:33:23.153Z,5.32
2022-10-11T14:36:26.904Z,5.20
2022-10-11T14:39:31.898Z,4.10
2022-10-11T14:42:33.618Z,4.30
2022-10-11T14:45:35.390Z,4.68
2022-10-11T14:48:54.513Z,4.50
2022-10-11T14:51:58.898Z,4.35
2022-10-11T14:55:00.852Z,5.45
2022-10-11T14:58:03.041Z,4.73
2022-10-11T15:01:04.963Z,4.55
2022-10-11T15:04:06.770Z,4.30
2022-10-11T15:07:10.367Z,4.43
2022-10-11T15:10:31.687Z,4.15
2022-10-11T15:13:33.444Z,4.80
2022-10-11T15:16:36.520Z,4.72
2022-10-11T15:19:38.373Z,4.72
2022-10-11T15:22:40.154Z,4.57
2022-10-11T15:25:42.601Z,4.10
2022-10-11T15:28:45.025Z,4.40
2022-10-11T15:31:46.951Z,4.05
2022-10-11T15:34:48.699Z,4.65
2022-10-11T15:37:56.026Z,4.40
2022-10-11T15:40:59.366Z,4.72
2022-10-11T15:44:03.556Z,4.50
2022-10-11T15:47:06.841Z,4.60
2022-10-11T15:50:19.071Z,5.00
2022-10-11T15:53:25.729Z,5.53
2022-10-11T15:56:31.593Z,5.70
2022-10-11T15:59:35.391Z,6.23
2022-10-11T16:02:37.247Z,6.28
2022-10-11T16:05:39.575Z,6.40
2022-10-11T16:08:41.399Z,6.75
2022-10-11T16:11:43.282Z,6.22
2022-10-11T16:14:47.196Z,6.60
2022-10-11T16:17:49.928Z,6.60
2022-10-11T16:20:52.524Z,6.38
2022-10-11T16:23:54.285Z,6.47
2022-10-11T16:26:56.276Z,6.75
2022-10-11T16:30:00.987Z,6.83
2022-10-11T16:33:02.757Z,7.47
2022-10-11T16:36:26.124Z,7.18
2022-10-11T16:39:28.095Z,8.38
2022-10-11T16:42:29.865Z,9.43
2022-10-11T16:45:32.489Z,9.10
2022-10-11T16:48:34.171Z,8.27
2022-10-11T16:51:35.844Z,7.85
2022-10-11T16:54:38.388Z,8.13
2022-10-11T16:57:40.069Z,8.10
2022-10-11T17:00:42.901Z,7.77
2022-10-11T17:03:49.332Z,8.30
2022-10-11T17:06:52.005Z,8.00
2022-10-11T17:09:56.195Z,8.18
2022-10-11T17:12:57.940Z,8.43
2022-10-11T17:15:59.788Z,8.75
2022-10-11T17:19:02.131Z,9.20
2022-10-11T17:22:04.285Z,8.82
2022-10-11T17:25:07.042Z,9.30
2022-10-11T17:28:09.014Z,8.80
2022-10-11T17:31:10.949Z,9.15
2022-10-11T17:34:14.476Z,8.38
2022-10-11T17:37:16.197Z,8.98
2022-10-11T17:40:18.617Z,8.35
2022-10-11T17:43:20.272Z,8.13
2022-10-11T17:46:22.660Z,8.73
2022-10-11T17:49:24.372Z,9.00
2022-10-11T17:52:26.067Z,9.20
2022-10-11T17:55:31.067Z,8.43
2022-10-11T17:58:34.458Z,8.53
2022-10-11T18:01:37.475Z,9.05
2022-10-11T18:04:39.326Z,9.18
2022-10-11T18:07:40.983Z,9.25
2022-10-11T18:10:47.378Z,8.98
2022-10-11T18:13:50.928Z,9.87
2022-10-11T18:16:52.713Z,9.18
2022-10-11T18:19:54.387Z,9.88
2022-10-11T18:22:56.054Z,9.50
2022-10-11T18:26:03.972Z,9.83
2022-10-11T18:29:05.886Z,10.40
2022-10-11T18:32:07.565Z,9.77
2022-10-11T18:35:09.809Z,9.35
2022-10-11T18:38:11.450Z,9.50
2022-10-11T18:41:16.122Z,9.07
2022-10-11T18:44:18.153Z,10.07
2022-10-11T18:47:20.026Z,11.77
2022-10-11T18:50:22.891Z,11.00
2022-10-11T18:53:25.181Z,10.75
2022-10-11T18:56:28.690Z,12.30
2022-10-11T18:59:30.571Z,11.82
2022-10-11T19:02:32.479Z,11.98
2022-10-11T19:05:34.182Z,11.60
2022-10-11T19:08:35.887Z,11.83
2022-10-11T19:11:38.462Z,10.90
2022-10-11T19:14:40.658Z,10.20
2022-10-11T19:17:42.349Z,9.50
2022-10-11T19:20:44.070Z,9.80
2022-10-11T19:23:47.506Z,10.13
2022-10-11T19:26:49.565Z,10.00
2022-10-11T19:29:51.264Z,9.27
2022-10-11T19:32:52.960Z,9.20
2022-10-11T19:35:56.274Z,9.57
2022-10-11T19:38:58.187Z,9.03
2022-10-11T19:42:00.912Z,9.93
2022-10-11T19:45:02.627Z,10.13
2022-10-11T19:48:04.456Z,10.15
2022-10-11T19:51:09.019Z,9.90
2022-10-11T19:54:13.038Z,10.07
2022-10-11T19:57:14.753Z,9.95
2022-10-11T20:00:16.912Z,10.32
2022-10-11T20:03:18.629Z,10.35
2022-10-11T20:06:22.103Z,10.15
2022-10-11T20:09:29.577Z,9.95
2022-10-11T20:12:33.802Z,10.13
2022-10-11T20:15:37.488Z,10.38
2022-10-11T20:18:39.434Z,10.40
2022-10-11T20:21:42.022Z,10.17
2022-10-11T20:24:43.742Z,10.18
2022-10-11T20:27:46.401Z,10.23
2022-10-11T20:30:48.058Z,10.90
2022-10-11T20:33:50.282Z,10.60
2022-10-11T20:36:52.257Z,10.70
2022-10-11T20:39:53.935Z,10.45
2022-10-11T20:42:55.626Z,11.05
2022-10-11T20:46:00.344Z,11.40
2022-10-11T20:49:07.947Z,10.87
2022-10-11T20:52:09.607Z,11.38
2022-10-11T20:55:11.350Z,12.13
2022-10-11T20:58:13.016Z,11.88
2022-10-11T21:01:17.030Z,12.88
2022-10-11T21:04:20.618Z,11.20
2022-10-11T21:07:22.312Z,10.85
2022-10-11T21:10:23.981Z,11.90
2022-10-11T21:13:25.746Z,11.27
2022-10-11T21:16:28.416Z,11.20
2022-10-11T21:19:30.151Z,12.07
2022-10-11T21:22:33.164Z,11.77
2022-10-11T21:25:36.127Z,11.77
2022-10-11T21:28:38.643Z,12.18
2022-10-11T21:31:40.883Z,12.10
2022-10-11T21:34:42.666Z,11.55
2022-10-11T21:37:44.334Z,11.90
2022-10-11T21:40:46.004Z,11.93
2022-10-11T21:43:48.574Z,11.83
2022-10-11T21:47:07.403Z,11.68
2022-10-11T21:50:09.782Z,11.95
2022-10-11T21:53:11.440Z,10.95
2022-10-11T21:56:13.239Z,12.03
2022-10-11T21:59:14.901Z,11.98
2022-10-11T22:02:16.638Z,12.70
2022-10-11T22:05:18.823Z,12.70
2022-10-11T22:08:20.850Z,12.48
2022-10-11T22:11:22.581Z,12.68
2022-10-11T22:14:24.949Z,12.68
2022-10-11T22:17:26.625Z,13.30
2022-10-11T22:20:28.414Z,13.13
2022-10-11T22:23:30.387Z,13.30
2022-10-11T22:26:35.161Z,13.18
2022-10-11T22:29:36.833Z,12.18
2022-10-11T22:32:38.540Z,12.23
2022-10-11T22:35:40.364Z,12.65
2022-10-11T22:38:43.503Z,11.93
2022-10-11T22:41:45.176Z,12.55
2022-10-11T22:44:49.384Z,12.43
2022-10-11T22:47:51.040Z,11.93
2022-10-11T22:50:52.926Z,12.27
2022-10-11T22:53:54.584Z,11.77
2022-10-11T22:56:56.296Z,12.90
2022-10-11T22:59:58.001Z,12.48
2022-10-11T23:02:59.714Z,12.43
2022-10-11T23:06:01.446Z,13.25
2022-10-11T23:09:03.229Z,12.55
2022-10-11T23:12:05.156Z,12.57
2022-10-11T23:15:10.018Z,13.23
2022-10-11T23:18:11.772Z,13.07
2022-10-11T23:21:13.525Z,13.05
2022-10-11T23:24:15.222Z,12.85
2022-10-11T23:27:16.928Z,15.02
2022-10-11T23:30:18.595Z,12.77
2022-10-11T23:33:20.513Z,13.98
2022-10-11T23:36:24.651Z,13.32
2022-10-11T23:39:26.375Z,13.35
2022-10-11T23:42:28.030Z,13.30
2022-10-11T23:45:29.767Z,13.68
2022-10-11T23:48:31.529Z,14.43
2022-10-11T23:51:33.265Z,14.57
2022-10-11T23:54:35.015Z,13.60
2022-10-11T23:57:36.947Z,14.50
